Time;durP1;ratioP1;P1;durP2;ratioP2;P2;SDS_P1;SDS_P2;PMS_P1;PMS_P2;Temp;Humidity;BMP_temperature;BMP_pressure;BME280_temperature;BME280_humidity;BME280_pressure;Samples;Min_cycle;Max_cycle;Signal;HPM_P1;HPM_P2
2023/09/29 00:02:23;;;;;;;12.50;6.75;;;21.50;99.90;;;;;;5033595;28;20382;-72
2023/09/29 00:04:49;;;;;;;;;;;21.50;99.90;;;;;;5033955;28;20370;-72
2023/09/29 00:07:16;;;;;;;16.42;7.18;;;21.50;99.90;;;;;;5033958;28;19909;-71
2023/09/29 00:09:43;;;;;;;11.90;6.68;;;21.50;99.90;;;;;;5033563;28;20462;-70
2023/09/29 00:12:09;;;;;;;12.52;6.40;;;21.50;99.90;;;;;;5033355;28;20385;-72
2023/09/29 00:14:35;;;;;;;13.30;7.07;;;21.40;99.90;;;;;;5033219;28;20022;-71
2023/09/29 00:17:01;;;;;;;13.75;6.85;;;21.40;99.90;;;;;;5033350;28;20044;-71
2023/09/29 00:19:27;;;;;;;;;;;21.40;99.90;;;;;;5034008;28;20043;-72
2023/09/29 00:21:53;;;;;;;14.50;6.93;;;21.40;99.90;;;;;;5033541;28;20396;-72
2023/09/29 00:24:19;;;;;;;14.32;7.55;;;21.40;99.90;;;;;;5033508;28;20112;-70
2023/09/29 00:26:45;;;;;;;11.80;6.88;;;21.40;99.90;;;;;;5033142;28;20087;-71
2023/09/29 00:29:11;;;;;;;14.73;7.07;;;21.40;99.90;;;;;;5033346;28;20034;-71
2023/09/29 00:31:37;;;;;;;14.68;6.85;;;21.40;99.90;;;;;;5031560;28;20129;-72
2023/09/29 00:34:03;;;;;;;14.27;6.72;;;21.40;99.90;;;;;;5032674;28;20025;-72
2023/09/29 00:36:29;;;;;;;10.60;7.13;;;21.50;99.90;;;;;;5032816;28;20063;-71
2023/09/29 00:38:56;;;;;;;12.75;6.45;;;21.50;99.90;;;;;;5031137;28;20026;-71
2023/09/29 00:41:22;;;;;;;10.27;6.20;;;21.50;99.90;;;;;;5032797;28;20056;-71
2023/09/29 00:43:50;;;;;;;11.23;6.85;;;21.50;99.90;;;;;;5032675;28;20039;-71
2023/09/29 00:46:16;;;;;;;12.65;6.80;;;21.50;99.90;;;;;;5032535;28;20069;-71
2023/09/29 00:48:42;;;;;;;12.50;6.13;;;21.40;99.90;;;;;;5032814;28;20053;-71
2023/09/29 00:51:08;;;;;;;13.15;6.93;;;21.40;99.90;;;;;;5032672;28;20026;-71
2023/09/29 00:53:35;;;;;;;11.65;7.00;;;21.30;99.90;;;;;;5032367;28;20109;-72
2023/09/29 00:56:02;;;;;;;17.73;7.13;;;21.30;99.90;;;;;;5033030;28;20021;-72
2023/09/29 00:58:28;;;;;;;19.17;7.50;;;21.20;99.90;;;;;;5032666;28;20108;-71
2023/09/29 01:00:55;;;;;;;18.08;7.05;;;21.20;99.90;;;;;;5032333;28;20026;-71
2023/09/29 01:03:21;;;;;;;18.98;7.22;;;21.20;99.90;;;;;;5032824;28;20030;-71
2023/09/29 01:05:48;;;;;;;15.40;7.10;;;21.20;99.90;;;;;;5030874;28;20087;-71
2023/09/29 01:08:20;;;;;;;12.75;7.47;;;21.20;99.90;;;;;;5032221;28;20112;-71
2023/09/29 01:10:46;;;;;;;15.77;6.85;;;21.10;99.90;;;;;;5032606;28;20075;-72
2023/09/29 01:13:15;;;;;;;16.60;7.70;;;21.10;99.90;;;;;;5032545;28;20415;-72
2023/09/29 01:15:41;;;;;;;15.35;7.57;;;21.10;99.90;;;;;;5031975;28;20107;-72
2023/09/29 01:18:08;;;;;;;14.55;7.53;;;21.00;99.90;;;;;;5032095;28;20025;-71
2023/09/29 01:20:37;;;;;;;19.40;7.60;;;21.00;99.90;;;;;;5032374;28;20108;-72
2023/09/29 01:23:03;;;;;;;13.60;7.60;;;21.00;99.90;;;;;;5032315;28;20044;-72
2023/09/29 01:25:30;;;;;;;13.57;7.80;;;21.00;99.90;;;;;;5031807;28;20061;-71
2023/09/29 01:27:56;;;;;;;;;;;21.00;99.90;;;;;;5032437;28;20113;-72
2023/09/29 01:30:24;;;;;;;17.35;7.70;;;21.00;99.90;;;;;;5031866;28;19997;-72
2023/09/29 01:32:52;;;;;;;20.90;8.02;;;20.90;99.90;;;;;;5031736;28;20025;-71
2023/09/29 01:35:23;;;;;;;14.45;7.85;;;20.90;99.90;;;;;;5031782;28;20045;-72
2023/09/29 01:37:50;;;;;;;13.05;7.68;;;20.90;99.90;;;;;;5031703;28;20120;-70
2023/09/29 01:40:23;;;;;;;15.88;8.48;;;20.80;99.90;;;;;;5031615;28;20121;-72
2023/09/29 01:42:53;;;;;;;12.88;7.68;;;20.80;99.90;;;;;;5031886;28;20086;-71
2023/09/29 01:45:19;;;;;;;11.18;8.05;;;20.80;99.90;;;;;;5031607;28;20106;-71
2023/09/29 01:47:46;;;;;;;14.88;7.65;;;20.80;99.90;;;;;;5031526;28;20026;-70
2023/09/29 01:50:17;;;;;;;23.17;7.80;;;20.80;99.90;;;;;;5030134;28;20065;-71
2023/09/29 01:52:46;;;;;;;15.75;7.93;;;20.70;99.90;;;;;;5032004;28;20017;-71
2023/09/29 01:55:14;;;;;;;14.50;7.68;;;20.70;99.90;;;;;;5032050;28;20060;-71
2023/09/29 01:57:43;;;;;;;11.43;7.03;;;20.70;99.90;;;;;;5031720;28;20022;-71
2023/09/29 02:00:15;;;;;;;14.57;7.10;;;20.70;99.90;;;;;;5031747;28;20026;-71
2023/09/29 02:02:43;;;;;;;11.10;7.22;;;20.70;99.90;;;;;;5013980;28;20402;-71
2023/09/29 02:05:11;;;;;;;13.63;7.78;;;20.60;99.90;;;;;;5029121;28;20041;-71
2023/09/29 02:07:38;;;;;;;12.98;7.75;;;20.60;99.90;;;;;;5031437;28;20017;-71
2023/09/29 02:10:05;;;;;;;15.02;8.02;;;20.60;99.90;;;;;;5029931;28;20060;-71
2023/09/29 02:12:31;;;;;;;14.45;7.55;;;20.60;99.90;;;;;;5031620;28;20099;-71
2023/09/29 02:14:58;;;;;;;;;;;20.70;99.90;;;;;;5031870;28;20354;-71
2023/09/29 02:17:25;;;;;;;14.65;7.75;;;20.60;99.90;;;;;;5031246;28;19905;-71
2023/09/29 02:19:52;;;;;;;17.27;7.22;;;20.60;99.90;;;;;;5031517;28;20136;-71
2023/09/29 02:22:22;;;;;;;16.10;7.85;;;20.60;99.90;;;;;;5031190;28;20052;-70
2023/09/29 02:24:48;;;;;;;12.50;7.82;;;20.60;99.90;;;;;;5030899;28;20029;-71
2023/09/29 02:27:15;;;;;;;13.90;8.10;;;20.60;99.90;;;;;;5031255;28;20036;-71
2023/09/29 02:29:42;;;;;;;13.77;7.28;;;20.60;99.90;;;;;;5031071;28;20021;-71
2023/09/29 02:32:08;;;;;;;14.45;7.50;;;20.60;99.90;;;;;;5031042;28;20038;-71
2023/09/29 02:34:34;;;;;;;13.98;7.65;;;20.60;99.90;;;;;;5031407;28;20029;-71
2023/09/29 02:37:00;;;;;;;17.55;7.65;;;20.60;99.90;;;;;;5031181;28;20099;-71
2023/09/29 02:39:26;;;;;;;18.17;7.63;;;20.60;99.90;;;;;;5030952;28;20026;-71
2023/09/29 02:41:52;;;;;;;13.85;7.85;;;20.60;99.90;;;;;;5031435;28;20034;-71
2023/09/29 02:44:18;;;;;;;14.40;7.60;;;20.60;99.90;;;;;;5029690;28;20029;-71
2023/09/29 02:46:44;;;;;;;12.45;7.78;;;20.50;99.90;;;;;;5030907;28;20126;-70
2023/09/29 02:49:10;;;;;;;12.63;8.18;;;20.50;99.90;;;;;;5030719;28;20389;-71
2023/09/29 02:51:36;;;;;;;15.15;7.88;;;20.40;99.90;;;;;;5031023;28;20504;-71
2023/09/29 02:54:03;;;;;;;11.18;7.63;;;20.50;99.90;;;;;;5031091;28;20021;-72
2023/09/29 02:56:30;;;;;;;14.63;7.82;;;20.50;99.90;;;;;;5030677;28;20103;-71
2023/09/29 02:58:56;;;;;;;21.02;8.18;;;20.50;99.90;;;;;;5029607;28;20075;-71
2023/09/29 03:01:22;;;;;;;16.80;8.07;;;20.50;99.90;;;;;;5030910;28;20068;-71
2023/09/29 03:03:49;;;;;;;12.98;7.85;;;20.40;99.90;;;;;;5031038;28;20033;-71
2023/09/29 03:06:20;;;;;;;14.77;7.90;;;20.40;99.90;;;;;;5030868;28;20118;-72
2023/09/29 03:08:54;;;;;;;14.70;7.07;;;20.40;99.90;;;;;;5029795;28;20111;-71
2023/09/29 03:11:21;;;;;;;14.93;7.75;;;20.50;99.90;;;;;;5031675;28;20025;-71
2023/09/29 03:13:47;;;;;;;17.52;7.95;;;20.40;99.90;;;;;;5031694;28;20029;-71
2023/09/29 03:16:13;;;;;;;10.90;7.93;;;20.40;99.90;;;;;;5031812;28;20018;-71
2023/09/29 03:18:40;;;;;;;14.07;8.38;;;20.40;99.90;;;;;;5035700;28;20030;-71
2023/09/29 03:21:09;;;;;;;14.13;7.78;;;20.30;99.90;;;;;;5033973;28;20238;-72
2023/09/29 03:23:36;;;;;;;18.42;8.73;;;20.40;99.90;;;;;;5035855;28;20040;-72
2023/09/29 03:26:04;;;;;;;15.90;8.05;;;20.30;99.90;;;;;;5036142;28;20038;-71
2023/09/29 03:28:31;;;;;;;14.43;7.75;;;20.30;99.90;;;;;;5036461;28;20343;-71
2023/09/29 03:31:01;;;;;;;13.52;8.13;;;20.30;99.90;;;;;;5035940;28;20028;-71
2023/09/29 03:33:27;;;;;;;18.27;8.20;;;20.30;99.90;;;;;;5035912;28;20355;-71
2023/09/29 03:35:55;;;;;;;13.75;8.43;;;20.30;99.90;;;;;;5035953;28;20064;-72
2023/09/29 03:38:24;;;;;;;12.95;8.63;;;20.30;99.90;;;;;;5034475;28;20095;-70
2023/09/29 03:40:52;;;;;;;13.40;7.85;;;20.30;99.90;;;;;;5035793;28;20033;-71
2023/09/29 03:43:24;;;;;;;16.75;7.40;;;20.20;99.90;;;;;;5034625;28;20513;-71
2023/09/29 03:45:53;;;;;;;14.65;8.25;;;20.20;99.90;;;;;;5035925;28;20072;-71
2023/09/29 03:48:20;;;;;;;16.92;8.27;;;20.20;99.90;;;;;;5035829;28;20103;-71
2023/09/29 03:50:49;;;;;;;15.85;8.18;;;20.20;99.90;;;;;;5034284;28;20048;-71
2023/09/29 03:53:16;;;;;;;13.98;8.32;;;20.20;99.90;;;;;;5034395;28;20041;-71
2023/09/29 03:55:44;;;;;;;18.30;8.57;;;20.20;99.90;;;;;;5035133;28;20024;-72
2023/09/29 03:58:11;;;;;;;15.98;8.50;;;20.20;99.90;;;;;;5034980;28;20040;-71
2023/09/29 04:00:37;;;;;;;18.60;8.32;;;20.20;99.90;;;;;;5034913;28;20021;-71
2023/09/29 04:03:04;;;;;;;13.05;7.43;;;20.20;99.90;;;;;;5034774;28;20485;-72
2023/09/29 04:05:29;;;;;;;;;;;20.20;99.90;;;;;;5035452;28;20377;-71
2023/09/29 04:07:56;;;;;;;15.23;8.13;;;20.20;99.90;;;;;;5034774;28;20369;-71
2023/09/29 04:10:22;;;;;;;16.38;8.50;;;20.20;99.90;;;;;;5035289;28;20343;-71
2023/09/29 04:12:48;;;;;;;13.00;8.05;;;20.10;99.90;;;;;;5034718;28;20079;-71
2023/09/29 04:15:15;;;;;;;16.00;8.35;;;20.10;99.90;;;;;;5034649;28;20489;-71
2023/09/29 04:17:41;;;;;;;15.43;8.27;;;20.00;99.90;;;;;;5034747;28;20022;-71
2023/09/29 04:20:08;;;;;;;19.60;8.25;;;20.10;99.90;;;;;;5033771;28;20029;-70
2023/09/29 04:22:35;;;;;;;14.48;8.18;;;20.00;99.90;;;;;;5035282;28;20104;-71
2023/09/29 04:25:02;;;;;;;17.00;8.38;;;20.00;99.90;;;;;;5034890;28;20045;-72
2023/09/29 04:27:29;;;;;;;17.75;8.48;;;20.00;99.90;;;;;;5034737;28;20025;-71
2023/09/29 04:29:55;;;;;;;13.25;7.93;;;20.10;99.90;;;;;;5034211;28;20033;-71
2023/09/29 04:32:22;;;;;;;12.52;7.70;;;20.10;99.90;;;;;;5034920;28;20017;-71
2023/09/29 04:34:48;;;;;;;15.48;8.32;;;20.10;99.90;;;;;;5034753;28;20025;-72
2023/09/29 04:37:14;;;;;;;15.68;8.43;;;20.10;99.90;;;;;;5034308;28;20025;-72
2023/09/29 04:39:40;;;;;;;14.35;7.90;;;20.10;99.90;;;;;;5034484;28;20026;-70
2023/09/29 04:42:06;;;;;;;17.30;8.35;;;20.10;99.90;;;;;;5034504;28;20029;-71
2023/09/29 04:44:32;;;;;;;15.65;8.55;;;20.10;99.90;;;;;;5034628;28;20030;-70
2023/09/29 04:46:59;;;;;;;12.57;8.13;;;20.10;99.90;;;;;;5034451;28;20045;-71
2023/09/29 04:49:26;;;;;;;17.48;8.15;;;20.10;99.90;;;;;;5034290;28;20085;-71
2023/09/29 04:51:52;;;;;;;18.02;8.90;;;20.00;99.90;;;;;;5034299;28;20022;-71
2023/09/29 04:54:18;;;;;;;14.65;8.73;;;20.10;99.90;;;;;;5034449;28;20040;-71
2023/09/29 04:56:45;;;;;;;16.13;8.52;;;20.10;99.90;;;;;;5034560;28;20029;-71
2023/09/29 04:59:11;;;;;;;19.23;9.00;;;20.10;99.90;;;;;;5034413;28;20021;-71
2023/09/29 05:01:38;;;;;;;17.73;8.70;;;20.00;99.90;;;;;;5033825;28;20029;-68
2023/09/29 05:04:05;;;;;;;14.68;8.93;;;20.00;99.90;;;;;;5032239;28;20025;-71
2023/09/29 05:06:31;;;;;;;17.83;8.52;;;20.00;99.90;;;;;;5033959;28;20026;-71
2023/09/29 05:08:57;;;;;;;18.30;8.60;;;20.00;99.90;;;;;;5033604;28;20028;-71
2023/09/29 05:11:25;;;;;;;16.92;8.63;;;20.00;99.90;;;;;;5033485;28;20022;-70
2023/09/29 05:13:52;;;;;;;13.27;8.00;;;20.00;99.90;;;;;;5033561;28;20022;-72
2023/09/29 05:16:19;;;;;;;12.82;8.52;;;20.10;99.90;;;;;;5031745;28;20143;-71
2023/09/29 05:18:45;;;;;;;14.70;8.18;;;20.10;99.90;;;;;;5033691;28;20021;-72
2023/09/29 05:21:11;;;;;;;;;;;20.20;99.90;;;;;;5032499;28;20425;-71
2023/09/29 05:23:38;;;;;;;13.90;8.07;;;20.10;99.90;;;;;;5033343;28;19912;-72
2023/09/29 05:26:05;;;;;;;;;;;20.10;99.90;;;;;;5032213;28;20151;-72
2023/09/29 05:28:32;;;;;;;17.48;8.15;;;20.20;99.90;;;;;;5033290;28;19913;-71
2023/09/29 05:30:59;;;;;;;;;;;20.20;99.90;;;;;;5031505;28;20389;-72
2023/09/29 05:33:25;;;;;;;11.75;8.25;;;20.20;99.90;;;;;;5031077;28;19909;-72
2023/09/29 05:35:51;;;;;;;15.88;8.77;;;20.20;99.90;;;;;;5031532;28;20026;-71
2023/09/29 05:38:18;;;;;;;19.95;9.63;;;20.30;99.90;;;;;;5032562;28;20116;-72
2023/09/29 05:40:47;;;;;;;;;;;20.70;99.90;;;;;;5033257;28;20079;-73
2023/09/29 05:43:13;;;;;;;19.40;8.25;;;21.40;99.90;;;;;;5032365;28;19905;-71
2023/09/29 05:45:42;;;;;;;15.65;8.95;;;22.00;99.90;;;;;;5032145;28;20033;-72
2023/09/29 05:48:08;;;;;;;21.45;9.05;;;22.50;99.90;;;;;;5031321;28;20048;-72
2023/09/29 05:50:35;;;;;;;16.60;8.73;;;22.80;99.90;;;;;;5031770;28;20060;-72
2023/09/29 05:53:03;;;;;;;15.85;9.07;;;23.20;99.90;;;;;;5031465;28;20102;-72
2023/09/29 05:55:29;;;;;;;20.45;9.20;;;23.50;99.90;;;;;;5031496;28;20025;-72
2023/09/29 05:57:55;;;;;;;20.63;8.68;;;23.70;99.90;;;;;;5031358;28;20028;-72
2023/09/29 06:00:21;;;;;;;11.68;7.95;;;24.00;99.90;;;;;;5031017;28;20033;-73
2023/09/29 06:02:47;;;;;;;17.08;8.52;;;24.30;99.90;;;;;;5030388;28;20116;-73
2023/09/29 06:05:14;;;;;;;15.57;8.90;;;24.10;99.90;;;;;;5031969;28;20489;-74
2023/09/29 06:07:41;;;;;;;18.77;8.63;;;23.60;99.90;;;;;;5032206;28;20041;-73
2023/09/29 06:10:07;;;;;;;16.95;8.23;;;24.20;99.90;;;;;;5031625;28;20091;-74
2023/09/29 06:12:33;;;;;;;;;;;24.40;99.90;;;;;;5030027;28;20354;-72
2023/09/29 06:15:00;;;;;;;17.80;7.88;;;24.70;99.90;;;;;;5031048;28;20332;-71
2023/09/29 06:17:26;;;;;;;14.15;7.30;;;24.60;99.90;;;;;;5031103;28;20063;-72
2023/09/29 06:19:53;;;;;;;16.00;7.43;;;24.60;99.90;;;;;;5031287;28;20091;-71
2023/09/29 06:22:19;;;;;;;15.52;6.88;;;24.30;99.90;;;;;;5031826;28;20061;-71
2023/09/29 06:24:45;;;;;;;11.85;6.68;;;24.50;99.90;;;;;;5031415;28;20036;-73
2023/09/29 06:27:12;;;;;;;16.05;7.03;;;24.20;99.90;;;;;;5031428;28;20029;-72
2023/09/29 06:29:41;;;;;;;10.45;6.95;;;24.30;99.90;;;;;;5031305;28;20378;-71
2023/09/29 06:32:10;;;;;;;17.05;6.30;;;25.00;99.90;;;;;;5029734;28;20029;-72
2023/09/29 06:34:37;;;;;;;14.63;6.03;;;24.50;99.90;;;;;;5031488;28;20036;-72
2023/09/29 06:37:03;;;;;;;18.75;7.10;;;24.80;99.90;;;;;;5031401;28;20048;-73
2023/09/29 06:39:29;;;;;;;16.40;6.50;;;25.30;99.90;;;;;;5031735;28;20519;-72
2023/09/29 06:41:56;;;;;;;14.55;6.40;;;25.30;99.90;;;;;;5031678;28;20079;-72
2023/09/29 06:44:25;;;;;;;16.88;6.57;;;25.80;99.90;;;;;;5031270;28;20108;-73
2023/09/29 06:46:51;;;;;;;11.90;5.45;;;25.60;99.90;;;;;;5031092;28;20037;-72
2023/09/29 06:49:17;;;;;;;14.10;5.90;;;25.60;99.90;;;;;;5030937;28;20103;-73
2023/09/29 06:51:44;;;;;;;17.73;6.80;;;26.20;99.90;;;;;;5032173;28;20029;-73
2023/09/29 06:54:10;;;;;;;13.75;6.30;;;25.60;99.90;;;;;;5035118;28;20049;-73
2023/09/29 06:56:36;;;;;;;;;;;25.60;99.90;;;;;;5035876;28;20029;-71
2023/09/29 06:59:03;;;;;;;15.77;6.00;;;26.00;99.90;;;;;;5034976;28;20019;-72
2023/09/29 07:01:29;;;;;;;16.20;6.07;;;26.60;99.90;;;;;;5034917;28;20029;-73
2023/09/29 07:03:55;;;;;;;14.35;5.95;;;27.20;99.90;;;;;;5034771;28;20048;-73
2023/09/29 07:06:23;;;;;;;13.27;5.70;;;27.90;99.90;;;;;;5034679;28;20385;-73
2023/09/29 07:08:49;;;;;;;10.95;5.78;;;27.90;99.90;;;;;;5034572;28;20073;-72
2023/09/29 07:11:16;;;;;;;19.15;6.13;;;28.30;99.90;;;;;;5032753;28;20116;-73
2023/09/29 07:13:42;;;;;;;15.30;5.78;;;27.80;99.90;;;;;;5032901;28;20184;-72
2023/09/29 07:16:08;;;;;;;10.20;5.65;;;28.10;99.90;;;;;;5034775;28;20182;-72
2023/09/29 07:18:34;;;;;;;11.30;5.75;;;28.30;99.90;;;;;;5033157;28;20072;-72
2023/09/29 07:21:00;;;;;;;12.82;5.85;;;29.00;99.90;;;;;;5034912;28;20454;-72
2023/09/29 07:23:29;;;;;;;17.00;6.10;;;29.00;99.90;;;;;;5034638;28;20056;-73
2023/09/29 07:25:56;;;;;;;12.82;5.95;;;29.00;99.90;;;;;;5034485;28;20084;-73
2023/09/29 07:28:22;;;;;;;11.57;6.25;;;28.40;99.90;;;;;;5034457;28;20075;-74
2023/09/29 07:30:50;;;;;;;13.27;6.30;;;28.50;99.90;;;;;;5034270;28;20462;-72
2023/09/29 07:33:17;;;;;;;14.88;6.40;;;27.50;99.90;;;;;;5034302;28;20021;-72
2023/09/29 07:35:44;;;;;;;13.30;6.50;;;27.20;99.90;;;;;;5032963;28;20056;-73
2023/09/29 07:38:11;;;;;;;12.05;6.82;;;26.90;99.90;;;;;;5032838;28;20026;-72
2023/09/29 07:40:38;;;;;;;11.27;6.60;;;26.60;99.90;;;;;;5034409;28;20350;-73
2023/09/29 07:43:05;;;;;;;14.60;6.88;;;26.90;99.90;;;;;;5033989;28;20104;-73
2023/09/29 07:45:34;;;;;;;14.20;7.22;;;27.00;99.90;;;;;;5034546;28;20038;-72
2023/09/29 07:48:01;;;;;;;13.60;7.03;;;26.00;99.90;;;;;;5033741;28;20481;-73
2023/09/29 07:50:27;;;;;;;16.73;6.68;;;26.00;99.90;;;;;;5034453;28;20168;-72
2023/09/29 07:52:53;;;;;;;11.32;6.80;;;26.20;99.90;;;;;;5033699;28;20030;-72
2023/09/29 07:55:19;;;;;;;14.63;6.80;;;26.80;99.90;;;;;;5033248;28;20036;-72
2023/09/29 07:57:45;;;;;;;14.30;6.85;;;26.50;99.90;;;;;;5033532;28;20036;-73
2023/09/29 08:00:14;;;;;;;16.65;7.00;;;26.20;99.90;;;;;;5033428;28;20033;-73
2023/09/29 08:02:41;;;;;;;18.88;6.80;;;26.50;99.90;;;;;;5030651;28;20478;-72
2023/09/29 08:05:08;;;;;;;12.02;6.55;;;26.30;99.90;;;;;;5031692;28;20056;-72
2023/09/29 08:07:34;;;;;;;13.38;6.68;;;26.00;99.90;;;;;;5032998;28;20030;-74
2023/09/29 08:10:00;;;;;;;16.13;7.30;;;26.00;99.90;;;;;;5032879;28;20107;-73
2023/09/29 08:12:26;;;;;;;10.40;6.45;;;26.30;99.90;;;;;;5033039;28;20060;-73
2023/09/29 08:14:53;;;;;;;14.32;6.15;;;26.60;99.90;;;;;;5032740;28;20032;-74
2023/09/29 08:17:19;;;;;;;12.15;6.30;;;26.60;99.90;;;;;;5031939;28;20071;-74
2023/09/29 08:19:47;;;;;;;14.23;6.00;;;26.50;99.90;;;;;;5033533;28;20045;-74
2023/09/29 08:22:13;;;;;;;10.60;5.80;;;26.90;99.90;;;;;;5033615;28;20078;-73
2023/09/29 08:24:39;;;;;;;15.45;6.30;;;27.20;99.90;;;;;;5033741;28;20034;-72
2023/09/29 08:27:06;;;;;;;14.80;6.07;;;27.70;99.90;;;;;;5033081;28;20037;-72
2023/09/29 08:29:33;;;;;;;14.65;6.13;;;28.20;99.90;;;;;;5033475;28;20104;-74
2023/09/29 08:32:00;;;;;;;11.20;6.13;;;28.30;99.90;;;;;;5033054;28;20117;-72
2023/09/29 08:34:31;;;;;;;14.20;6.80;;;27.30;99.90;;;;;;5033107;28;20022;-72
2023/09/29 08:36:58;;;;;;;12.38;6.03;;;27.30;99.90;;;;;;5033096;28;20346;-73
2023/09/29 08:39:25;;;;;;;16.02;6.57;;;27.00;99.90;;;;;;5032916;28;20470;-72
2023/09/29 08:41:59;;;;;;;12.70;6.28;;;27.10;99.90;;;;;;5033390;28;20029;-71
2023/09/29 08:44:29;;;;;;;13.02;6.57;;;27.20;99.90;;;;;;5033278;28;20037;-73
2023/09/29 08:47:01;;;;;;;15.60;6.70;;;27.10;99.90;;;;;;5032894;28;20037;-73
2023/09/29 08:49:27;;;;;;;16.27;6.38;;;27.10;99.90;;;;;;5031154;28;20064;-73
2023/09/29 08:51:55;;;;;;;13.10;7.47;;;26.90;99.90;;;;;;5033137;28;20106;-73
2023/09/29 08:54:24;;;;;;;13.35;7.28;;;26.80;99.90;;;;;;5032753;28;20014;-72
2023/09/29 08:56:51;;;;;;;12.63;6.85;;;27.30;99.90;;;;;;5033016;28;20399;-72
2023/09/29 08:59:17;;;;;;;11.65;5.80;;;27.50;99.90;;;;;;5031121;28;20033;-73
2023/09/29 09:01:43;;;;;;;;;;;27.60;99.90;;;;;;5032929;28;20025;-71
2023/09/29 09:04:10;;;;;;;13.88;6.22;;;27.70;99.90;;;;;;5032430;28;19909;-71
2023/09/29 09:06:36;;;;;;;11.65;6.15;;;27.40;99.90;;;;;;5032335;28;20040;-72
2023/09/29 09:09:02;;;;;;;9.07;5.50;;;26.90;99.90;;;;;;5032054;28;20049;-73
2023/09/29 09:11:28;;;;;;;12.07;6.65;;;26.60;99.90;;;;;;5032428;28;20132;-72
2023/09/29 09:14:00;;;;;;;16.23;6.78;;;26.70;99.90;;;;;;5030424;28;20033;-71
2023/09/29 09:16:27;;;;;;;14.07;6.80;;;26.50;99.90;;;;;;5030341;28;20096;-74
2023/09/29 09:18:54;;;;;;;15.52;6.40;;;26.80;99.90;;;;;;5032511;28;20022;-72
2023/09/29 09:21:31;;;;;;;16.85;6.32;;;27.10;99.90;;;;;;5030674;28;20049;-73
2023/09/29 09:23:58;;;;;;;17.23;7.10;;;27.30;99.90;;;;;;5032250;28;20104;-71
2023/09/29 09:26:27;;;;;;;15.70;6.25;;;27.40;99.90;;;;;;5031982;28;20439;-72
2023/09/29 09:28:53;;;;;;;12.90;6.20;;;27.40;99.90;;;;;;5032614;28;20049;-72
2023/09/29 09:31:19;;;;;;;14.70;6.80;;;27.50;99.90;;;;;;5032290;28;20037;-72
2023/09/29 09:33:49;;;;;;;11.00;5.72;;;27.70;99.90;;;;;;5032156;28;20048;-72
2023/09/29 09:36:16;;;;;;;14.98;6.40;;;27.60;99.90;;;;;;5030393;28;20300;-73
2023/09/29 09:38:43;;;;;;;10.55;6.03;;;27.70;99.90;;;;;;5032156;28;20095;-71
2023/09/29 09:41:10;;;;;;;19.40;6.50;;;27.60;99.90;;;;;;5032367;28;20033;-73
2023/09/29 09:43:38;;;;;;;13.82;5.90;;;27.70;99.90;;;;;;5032424;28;20030;-73
2023/09/29 09:46:12;;;;;;;13.30;6.00;;;28.00;99.90;;;;;;5032153;28;20034;-72
2023/09/29 09:49:08;;;;;;;15.85;6.13;;;28.00;99.90;;;;;;5030238;28;20079;-72
2023/09/29 09:51:35;;;;;;;16.02;6.05;;;28.40;99.90;;;;;;5031997;28;20504;-73
2023/09/29 09:54:09;;;;;;;13.50;5.93;;;28.40;99.90;;;;;;5029938;28;20026;-73
2023/09/29 09:56:50;;;;;;;14.43;6.00;;;28.70;99.90;;;;;;5031610;28;20044;-73
2023/09/29 09:59:16;;;;;;;14.13;5.57;;;28.80;99.90;;;;;;5031890;28;20064;-72
2023/09/29 10:01:45;;;;;;;15.30;6.03;;;28.90;99.90;;;;;;5031102;28;20408;-72
2023/09/29 10:04:13;;;;;;;12.68;5.88;;;28.80;99.90;;;;;;5031252;28;20059;-74
2023/09/29 10:06:45;;;;;;;12.77;5.65;;;28.30;99.90;;;;;;5031601;28;20042;-72
2023/09/29 10:09:11;;;;;;;13.82;6.30;;;28.80;99.90;;;;;;5031542;28;20021;-72
2023/09/29 10:11:42;;;;;;;19.15;5.97;;;28.90;99.90;;;;;;5031611;28;20446;-73
2023/09/29 10:14:09;;;;;;;18.58;5.60;;;29.00;99.90;;;;;;5031843;28;20424;-73
2023/09/29 10:16:35;;;;;;;14.52;5.90;;;29.00;99.90;;;;;;5031628;28;20025;-72
2023/09/29 10:19:16;;;;;;;11.68;6.07;;;28.70;99.90;;;;;;5031923;28;20021;-73
2023/09/29 10:21:45;;;;;;;10.75;5.63;;;28.70;99.90;;;;;;5031667;28;20033;-73
2023/09/29 10:24:23;;;;;;;14.82;5.38;;;28.70;99.90;;;;;;5031242;28;20028;-73
2023/09/29 10:26:49;;;;;;;9.43;5.45;;;28.60;99.90;;;;;;5031045;28;20038;-73
2023/09/29 10:29:19;;;;;;;14.73;5.75;;;28.80;99.90;;;;;;5035580;28;20029;-72
2023/09/29 10:31:46;;;;;;;18.92;5.82;;;28.80;99.90;;;;;;5035305;28;20108;-72
2023/09/29 10:34:21;;;;;;;12.50;5.57;;;28.70;99.90;;;;;;5035509;28;20100;-72
2023/09/29 10:36:56;;;;;;;13.25;5.63;;;28.60;99.90;;;;;;5035271;28;20067;-73
2023/09/29 10:39:29;;;;;;;11.82;5.55;;;28.50;99.90;;;;;;5034534;28;20442;-73
2023/09/29 10:41:59;;;;;;;15.63;5.45;;;28.50;99.90;;;;;;5035812;28;20093;-72
2023/09/29 10:44:29;;;;;;;14.52;5.82;;;28.60;99.90;;;;;;5035312;28;20458;-73
2023/09/29 10:46:55;;;;;;;10.77;5.35;;;28.50;99.90;;;;;;5035263;28;20057;-71
2023/09/29 10:49:31;;;;;;;15.57;7.43;;;28.60;99.90;;;;;;5034296;28;20049;-73
2023/09/29 10:51:57;;;;;;;;;;;28.70;99.90;;;;;;5035228;28;20436;-71
2023/09/29 10:54:24;;;;;;;18.48;5.78;;;28.90;99.90;;;;;;5034855;28;19916;-73
2023/09/29 10:56:50;;;;;;;9.95;5.28;;;29.00;99.90;;;;;;5034510;28;20022;-73
2023/09/29 10:59:17;;;;;;;11.98;5.10;;;29.10;99.90;;;;;;5034167;28;20026;-72
2023/09/29 11:01:44;;;;;;;9.98;4.88;;;29.20;99.90;;;;;;5032187;28;20561;-72
2023/09/29 11:04:10;;;;;;;17.90;5.30;;;28.90;99.90;;;;;;5033571;28;20026;-72
2023/09/29 11:07:02;;;;;;;;;;;28.70;99.90;;;;;;5034185;28;20085;-71
2023/09/29 11:09:31;;;;;;;10.18;4.60;;;28.70;99.90;;;;;;5031888;28;19905;-73
2023/09/29 11:11:58;;;;;;;15.63;5.60;;;28.90;99.90;;;;;;5034125;28;20030;-71
2023/09/29 11:14:36;;;;;;;14.75;5.03;;;29.00;99.90;;;;;;5034298;28;20108;-72
2023/09/29 11:17:03;;;;;;;14.55;5.57;;;29.00;99.90;;;;;;5034244;28;20351;-72
2023/09/29 11:19:30;;;;;;;10.38;4.68;;;28.90;99.90;;;;;;5034543;28;20025;-72
2023/09/29 11:22:00;;;;;;;15.73;4.57;;;29.10;99.90;;;;;;5035059;28;20401;-71
2023/09/29 11:24:28;;;;;;;12.32;5.03;;;29.10;99.90;;;;;;5034586;28;20112;-71
2023/09/29 11:26:55;;;;;;;14.63;5.72;;;29.10;99.90;;;;;;5034926;28;20079;-72
2023/09/29 11:29:27;;;;;;;17.20;5.28;;;29.00;99.90;;;;;;5033629;28;20068;-71
2023/09/29 11:31:54;;;;;;;16.48;6.90;;;28.90;99.90;;;;;;5034657;28;20599;-72
2023/09/29 11:34:21;;;;;;;15.32;6.63;;;28.90;99.90;;;;;;5035423;28;20082;-72
2023/09/29 11:36:51;;;;;;;20.27;8.45;;;29.10;99.90;;;;;;5035208;28;20029;-72
2023/09/29 11:39:19;;;;;;;12.85;6.45;;;29.20;99.90;;;;;;5034504;28;20030;-72
2023/09/29 11:41:46;;;;;;;15.23;7.40;;;29.30;99.90;;;;;;5034836;28;20075;-72
2023/09/29 11:44:12;;;;;;;15.45;7.53;;;29.30;99.90;;;;;;5034254;28;20424;-71
2023/09/29 11:46:41;;;;;;;16.83;6.47;;;29.30;99.90;;;;;;5034355;28;20327;-72
2023/09/29 11:49:08;;;;;;;13.05;5.50;;;29.30;99.90;;;;;;5033966;28;20243;-72
2023/09/29 11:51:34;;;;;;;;;;;29.10;99.90;;;;;;5034736;28;20474;-72
2023/09/29 11:54:01;;;;;;;12.82;5.35;;;29.20;99.90;;;;;;5034208;28;20361;-72
2023/09/29 11:56:27;;;;;;;16.75;5.30;;;29.40;99.90;;;;;;5033902;28;20037;-71
2023/09/29 11:58:54;;;;;;;13.15;5.32;;;29.30;99.90;;;;;;5033922;28;20572;-71
2023/09/29 12:01:20;;;;;;;14.45;4.90;;;29.00;99.90;;;;;;5033492;28;20060;-71
2023/09/29 12:03:46;;;;;;;10.93;4.28;;;29.20;99.90;;;;;;5033598;28;20204;-72
2023/09/29 12:06:12;;;;;;;10.77;4.65;;;29.40;99.90;;;;;;5033044;28;20059;-72
2023/09/29 12:08:38;;;;;;;12.90;4.45;;;29.40;99.90;;;;;;5034370;28;20022;-72
2023/09/29 12:11:05;;;;;;;9.10;4.35;;;29.40;99.90;;;;;;5034324;28;20053;-72
2023/09/29 12:13:36;;;;;;;16.88;4.47;;;29.20;99.90;;;;;;5033076;28;20041;-72
2023/09/29 12:16:10;;;;;;;12.23;4.40;;;29.20;99.90;;;;;;5034187;28;20022;-72
2023/09/29 12:18:36;;;;;;;10.27;4.38;;;29.10;99.90;;;;;;5033034;28;20037;-71
2023/09/29 12:21:08;;;;;;;;;;;28.90;99.90;;;;;;5035423;28;20141;-71
2023/09/29 12:23:34;;;;;;;10.85;4.10;;;29.00;99.90;;;;;;5034732;28;19905;-72
2023/09/29 12:26:00;;;;;;;9.77;4.43;;;28.80;99.90;;;;;;5034916;28;20043;-72
2023/09/29 12:28:26;;;;;;;13.75;8.35;;;29.10;99.90;;;;;;5034551;28;20104;-71
2023/09/29 12:30:52;;;;;;;26.23;12.35;;;29.20;99.90;;;;;;5034467;28;20029;-72
2023/09/29 12:33:21;;;;;;;19.00;8.77;;;29.20;99.90;;;;;;5034306;28;20028;-72
2023/09/29 12:35:47;;;;;;;17.25;6.18;;;29.20;99.90;;;;;;5034790;28;20026;-70
2023/09/29 12:38:13;;;;;;;17.48;6.03;;;29.30;99.90;;;;;;5034840;28;20105;-73
2023/09/29 12:40:39;;;;;;;11.93;6.13;;;29.00;99.90;;;;;;5034719;28;20025;-72
2023/09/29 12:43:05;;;;;;;;;;;29.20;99.90;;;;;;5035236;28;20025;-72
2023/09/29 12:45:31;;;;;;;15.45;4.78;;;29.20;99.90;;;;;;5034306;28;19913;-72